createdAt,value
2023-04-19T00:01:52.059Z,100.00
2023-04-19T00:04:21.221Z,100.00
2023-04-19T00:06:52.361Z,100.00
2023-04-19T00:09:21.187Z,100.00
2023-04-19T00:11:51.307Z,100.00
2023-04-19T00:14:19.581Z,100.00
2023-04-19T00:16:47.748Z,100.00
2023-04-19T00:19:16.344Z,100.00
2023-04-19T00:21:44.883Z,100.00
2023-04-19T00:24:16.390Z,100.00
2023-04-19T00:26:45.359Z,100.00
2023-04-19T00:29:13.953Z,100.00
2023-04-19T00:31:42.356Z,100.00
2023-04-19T00:34:10.770Z,100.00
2023-04-19T00:36:41.923Z,100.00
2023-04-19T00:39:11.990Z,100.00
2023-04-19T00:41:43.414Z,100.00
2023-04-19T00:44:11.821Z,100.00
2023-04-19T00:46:40.969Z,100.00
2023-04-19T00:49:10.282Z,100.00
2023-04-19T00:51:39.250Z,100.00
2023-04-19T00:54:08.597Z,100.00
2023-04-19T00:56:36.664Z,100.00
2023-04-19T00:59:05.117Z,100.00
2023-04-19T01:01:34.570Z,100.00
2023-04-19T01:04:03.050Z,100.00
2023-04-19T01:06:35.286Z,100.00
2023-04-19T01:09:03.597Z,100.00
2023-04-19T01:11:32.003Z,100.00
2023-04-19T01:14:00.256Z,100.00
2023-04-19T01:16:30.326Z,100.00
2023-04-19T01:18:58.825Z,100.00
2023-04-19T01:21:29.881Z,100.00
2023-04-19T01:23:58.060Z,100.00
2023-04-19T01:26:27.242Z,100.00
2023-04-19T01:28:55.439Z,100.00
2023-04-19T01:31:23.629Z,100.00
2023-04-19T01:33:51.822Z,100.00
2023-04-19T01:36:20.058Z,100.00
2023-04-19T01:38:48.531Z,100.00
2023-04-19T01:41:17.107Z,100.00
2023-04-19T01:43:45.087Z,100.00
2023-04-19T01:46:13.194Z,100.00
2023-04-19T01:48:41.699Z,100.00
2023-04-19T01:51:10.364Z,100.00
2023-04-19T01:53:38.567Z,100.00
2023-04-19T01:56:07.567Z,100.00
2023-04-19T01:58:35.987Z,100.00
2023-04-19T02:01:04.142Z,100.00
2023-04-19T02:03:33.247Z,100.00
2023-04-19T02:06:02.440Z,100.00
2023-04-19T02:08:34.384Z,100.00
2023-04-19T02:11:08.550Z,100.00
2023-04-19T02:13:37.262Z,100.00
2023-04-19T02:16:08.274Z,100.00
2023-04-19T02:18:40.902Z,100.00
2023-04-19T02:21:11.383Z,100.00
2023-04-19T02:23:39.604Z,100.00
2023-04-19T02:26:07.721Z,100.00
2023-04-19T02:28:36.017Z,100.00
2023-04-19T02:31:07.688Z,100.00
2023-04-19T02:33:36.647Z,100.00
2023-04-19T02:36:06.129Z,100.00
2023-04-19T02:38:35.393Z,100.00
2023-04-19T02:41:05.035Z,100.00
2023-04-19T02:43:33.751Z,100.00
2023-04-19T02:46:02.610Z,100.00
2023-04-19T02:48:30.845Z,100.00
2023-04-19T02:51:00.758Z,100.00
2023-04-19T02:53:30.082Z,100.00
2023-04-19T02:56:00.743Z,100.00
2023-04-19T02:58:29.332Z,100.00
2023-04-19T03:01:00.202Z,100.00
2023-04-19T03:03:29.473Z,100.00
2023-04-19T03:05:59.010Z,100.00
2023-04-19T03:08:27.740Z,100.00
2023-04-19T03:11:00.216Z,100.00
2023-04-19T03:13:29.383Z,100.00
2023-04-19T03:15:58.227Z,100.00
2023-04-19T03:18:26.497Z,100.00
2023-04-19T03:20:54.918Z,100.00
2023-04-19T03:23:23.479Z,100.00
2023-04-19T03:25:51.609Z,100.00
2023-04-19T03:28:22.040Z,100.00
2023-04-19T03:30:50.467Z,100.00
2023-04-19T03:33:18.905Z,100.00
2023-04-19T03:35:47.030Z,100.00
2023-04-19T03:38:15.249Z,100.00
2023-04-19T03:40:43.605Z,100.00
2023-04-19T03:43:12.101Z,100.00
2023-04-19T03:45:40.331Z,100.00
2023-04-19T03:48:08.688Z,100.00
2023-04-19T03:50:36.857Z,100.00
2023-04-19T03:53:06.103Z,100.00
2023-04-19T03:55:35.354Z,100.00
2023-04-19T03:58:03.755Z,100.00
2023-04-19T04:00:32.359Z,100.00
2023-04-19T04:03:00.616Z,100.00
2023-04-19T04:05:29.434Z,100.00
2023-04-19T04:07:58.437Z,100.00
2023-04-19T04:10:27.143Z,100.00
2023-04-19T04:12:55.333Z,100.00
2023-04-19T04:15:23.516Z,100.00
2023-04-19T04:17:51.990Z,100.00
2023-04-19T04:20:20.169Z,100.00
2023-04-19T04:22:48.270Z,100.00
2023-04-19T04:25:21.134Z,100.00
2023-04-19T04:27:53.449Z,100.00
2023-04-19T04:30:21.503Z,100.00
2023-04-19T04:32:51.635Z,100.00
2023-04-19T04:35:19.805Z,100.00
2023-04-19T04:37:49.118Z,100.00
2023-04-19T04:40:17.428Z,100.00
2023-04-19T04:42:46.247Z,100.00
2023-04-19T04:45:14.715Z,100.00
2023-04-19T04:47:43.013Z,100.00
2023-04-19T04:50:31.950Z,100.00
2023-04-19T04:53:00.029Z,100.00
2023-04-19T04:55:32.220Z,100.00
2023-04-19T04:58:00.626Z,100.00
2023-04-19T05:00:28.993Z,100.00
2023-04-19T05:02:57.580Z,100.00
2023-04-19T05:05:27.290Z,100.00
2023-04-19T05:07:58.857Z,100.00
2023-04-19T05:10:27.390Z,100.00
2023-04-19T05:12:55.858Z,100.00
2023-04-19T05:15:24.401Z,100.00
2023-04-19T05:17:52.808Z,100.00
2023-04-19T05:20:22.507Z,100.00
2023-04-19T05:22:51.062Z,100.00
2023-04-19T05:25:19.032Z,100.00
2023-04-19T05:27:49.101Z,100.00
2023-04-19T05:30:17.317Z,100.00
2023-04-19T05:32:45.258Z,100.00
2023-04-19T05:35:13.239Z,100.00
2023-04-19T05:37:42.321Z,100.00
2023-04-19T05:40:11.331Z,100.00
2023-04-19T05:42:39.925Z,100.00
2023-04-19T05:45:09.906Z,100.00
2023-04-19T05:47:38.877Z,98.43
2023-04-19T05:50:07.582Z,95.67
2023-04-19T05:52:36.123Z,94.29
2023-04-19T05:55:04.919Z,91.77
2023-04-19T05:57:33.983Z,90.03
2023-04-19T06:00:02.586Z,91.57
2023-04-19T06:02:31.527Z,92.57
2023-04-19T06:05:02.586Z,92.18
2023-04-19T06:07:40.715Z,91.10
2023-04-19T06:10:15.806Z,91.57
2023-04-19T06:12:44.070Z,90.65
2023-04-19T06:15:12.264Z,81.85
2023-04-19T06:17:43.481Z,83.87
2023-04-19T06:20:12.807Z,87.75
2023-04-19T06:22:49.162Z,90.75
2023-04-19T06:25:17.565Z,91.81
2023-04-19T06:27:49.216Z,92.63
2023-04-19T06:30:20.114Z,91.76
2023-04-19T06:32:48.413Z,90.84
2023-04-19T06:35:16.767Z,90.43
2023-04-19T06:37:45.255Z,87.81
2023-04-19T06:40:13.765Z,85.16
2023-04-19T06:42:42.113Z,83.99
2023-04-19T06:45:10.869Z,81.77
2023-04-19T06:47:39.657Z,78.89
2023-04-19T06:50:11.515Z,79.30
2023-04-19T06:52:40.587Z,80.25
2023-04-19T06:55:10.298Z,81.14
2023-04-19T06:57:38.996Z,82.15
2023-04-19T07:00:08.653Z,84.64
2023-04-19T07:02:37.159Z,86.51
2023-04-19T07:05:06.390Z,85.47
2023-04-19T07:07:34.761Z,81.76
2023-04-19T07:10:06.038Z,75.93
2023-04-19T07:12:34.144Z,69.08
2023-04-19T07:15:02.377Z,65.24
2023-04-19T07:17:31.954Z,62.36
2023-04-19T07:20:00.128Z,60.41
2023-04-19T07:22:28.238Z,57.21
2023-04-19T07:24:56.692Z,59.80
2023-04-19T07:27:27.106Z,62.21
2023-04-19T07:29:55.317Z,60.12
2023-04-19T07:32:23.326Z,59.58
2023-04-19T07:34:52.199Z,58.40
2023-04-19T07:37:20.433Z,58.29
2023-04-19T07:39:48.554Z,57.89
2023-04-19T07:42:16.813Z,61.54
2023-04-19T07:44:47.695Z,60.66
2023-04-19T07:47:16.015Z,57.70
2023-04-19T07:49:47.508Z,57.71
2023-04-19T07:52:15.786Z,57.48
2023-04-19T07:54:43.930Z,58.56
2023-04-19T07:57:12.247Z,58.85
2023-04-19T07:59:40.419Z,59.45
2023-04-19T08:02:12.496Z,59.78
2023-04-19T08:04:41.142Z,60.02
2023-04-19T08:07:10.022Z,62.09
2023-04-19T08:09:38.326Z,63.35
2023-04-19T08:12:06.654Z,62.35
2023-04-19T08:14:43.706Z,64.13
2023-04-19T08:19:50.916Z,61.74
2023-04-19T08:22:20.956Z,63.08
2023-04-19T08:24:53.098Z,61.07
2023-04-19T08:27:22.289Z,61.37
2023-04-19T08:29:53.486Z,62.44
2023-04-19T08:32:24.019Z,63.08
2023-04-19T08:34:52.073Z,59.38
2023-04-19T08:37:20.390Z,58.38
2023-04-19T08:39:48.291Z,57.74
2023-04-19T08:42:28.661Z,56.97
2023-04-19T08:47:48.221Z,57.28
2023-04-19T08:50:33.123Z,59.07
2023-04-19T08:53:24.024Z,59.23
2023-04-19T08:56:14.739Z,59.27
2023-04-19T09:01:33.780Z,57.76
2023-04-19T09:04:26.086Z,55.56
2023-04-19T09:06:56.669Z,55.57
2023-04-19T09:09:37.056Z,53.96
2023-04-19T09:12:18.813Z,53.28
2023-04-19T09:17:19.646Z,52.52
2023-04-19T09:19:49.926Z,53.47
2023-04-19T09:22:20.005Z,54.97
2023-04-19T09:27:27.497Z,55.70
2023-04-19T09:30:03.704Z,55.84
2023-04-19T09:32:47.924Z,55.05
2023-04-19T09:35:16.316Z,53.43
2023-04-19T09:38:05.786Z,53.15
2023-04-19T09:40:38.819Z,53.38
2023-04-19T09:43:33.044Z,54.57
2023-04-19T09:45:58.192Z,54.81
2023-04-19T09:48:26.821Z,55.36
2023-04-19T09:51:03.796Z,55.51
2023-04-19T09:53:37.433Z,54.98
2023-04-19T09:56:06.673Z,55.64
2023-04-19T09:58:48.983Z,54.21
2023-04-19T10:01:21.021Z,54.44
2023-04-19T10:03:51.505Z,54.90
2023-04-19T10:08:56.175Z,54.60
2023-04-19T10:11:27.706Z,51.84
2023-04-19T10:13:58.409Z,50.92
2023-04-19T10:16:27.629Z,50.56
2023-04-19T10:18:56.087Z,49.77
2023-04-19T10:21:24.416Z,50.09
2023-04-19T10:23:52.511Z,49.97
2023-04-19T10:26:22.965Z,49.92
2023-04-19T10:28:51.226Z,51.89
2023-04-19T10:31:24.332Z,53.11
2023-04-19T10:33:58.474Z,51.64
2023-04-19T10:36:28.603Z,52.57
2023-04-19T10:38:57.306Z,53.66
2023-04-19T10:41:58.452Z,54.82
2023-04-19T10:44:26.296Z,54.27
2023-04-19T10:46:55.093Z,53.93
2023-04-19T10:49:48.432Z,54.77
2023-04-19T10:52:32.147Z,55.66
2023-04-19T10:55:05.133Z,56.63
2023-04-19T10:58:04.082Z,57.55
2023-04-19T11:00:33.686Z,57.92
2023-04-19T11:03:42.052Z,58.02
2023-04-19T11:06:20.518Z,57.68
2023-04-19T11:08:48.386Z,58.80
2023-04-19T11:11:17.196Z,59.63
2023-04-19T11:13:48.251Z,60.58
2023-04-19T11:16:18.314Z,60.50
2023-04-19T11:18:49.533Z,61.24
2023-04-19T11:21:20.823Z,61.66
2023-04-19T11:23:50.406Z,61.88
2023-04-19T11:26:18.749Z,61.45
2023-04-19T11:28:48.098Z,62.44
2023-04-19T11:31:16.306Z,62.56
2023-04-19T11:33:44.521Z,64.83
2023-04-19T11:36:13.749Z,65.23
2023-04-19T11:38:41.819Z,65.52
2023-04-19T11:41:09.828Z,65.56
2023-04-19T11:43:38.519Z,66.45
2023-04-19T11:46:07.538Z,67.54
2023-04-19T11:48:38.101Z,68.17
2023-04-19T11:51:06.884Z,69.21
2023-04-19T11:53:35.931Z,69.05
2023-04-19T11:56:08.822Z,69.72
2023-04-19T11:58:45.777Z,70.34
2023-04-19T12:01:16.105Z,71.21
2023-04-19T12:03:48.072Z,71.07
2023-04-19T12:06:39.364Z,72.19
2023-04-19T12:09:11.743Z,74.54
2023-04-19T12:11:47.364Z,74.94
2023-04-19T12:14:17.195Z,76.69
2023-04-19T12:16:46.616Z,78.61
2023-04-19T12:19:20.869Z,79.47
2023-04-19T12:21:49.279Z,79.76
2023-04-19T12:24:17.618Z,82.09
2023-04-19T12:26:56.663Z,85.40
2023-04-19T12:29:28.393Z,87.95
2023-04-19T12:31:56.692Z,90.35
2023-04-19T12:34:25.326Z,95.13
2023-04-19T12:36:53.331Z,100.00
2023-04-19T12:39:24.155Z,100.00
2023-04-19T12:41:52.404Z,100.00
2023-04-19T12:44:20.548Z,100.00
2023-04-19T12:46:48.910Z,100.00
2023-04-19T12:49:20.559Z,100.00
2023-04-19T12:51:52.744Z,100.00
2023-04-19T12:54:22.120Z,100.00
2023-04-19T12:56:50.818Z,100.00
2023-04-19T12:59:19.502Z,100.00
2023-04-19T13:01:47.732Z,100.00
2023-04-19T13:04:16.413Z,100.00
2023-04-19T13:06:50.126Z,100.00
2023-04-19T13:09:18.699Z,100.00
2023-04-19T13:11:46.773Z,100.00
2023-04-19T13:14:15.450Z,100.00
2023-04-19T13:16:43.773Z,100.00
2023-04-19T13:19:11.967Z,100.00
2023-04-19T13:21:40.133Z,100.00
2023-04-19T13:24:08.971Z,100.00
2023-04-19T13:26:37.858Z,100.00
2023-04-19T13:29:10.595Z,100.00
2023-04-19T13:31:39.003Z,100.00
2023-04-19T13:34:07.319Z,100.00
2023-04-19T13:36:37.141Z,100.00
2023-04-19T13:39:08.203Z,100.00
2023-04-19T13:41:37.516Z,100.00
2023-04-19T13:44:06.671Z,100.00
2023-04-19T13:46:38.056Z,100.00
2023-04-19T13:49:06.108Z,100.00
2023-04-19T13:51:46.372Z,100.00
2023-04-19T13:54:21.584Z,100.00
2023-04-19T13:56:52.104Z,100.00
2023-04-19T13:59:22.084Z,100.00
2023-04-19T14:01:50.899Z,100.00
2023-04-19T14:04:21.699Z,100.00
2023-04-19T14:06:51.775Z,100.00
2023-04-19T14:09:19.807Z,100.00
2023-04-19T14:11:49.255Z,100.00
2023-04-19T14:14:17.913Z,100.00
2023-04-19T14:16:46.747Z,100.00
2023-04-19T14:19:15.540Z,100.00
2023-04-19T14:21:43.401Z,100.00
2023-04-19T14:24:14.736Z,100.00
2023-04-19T14:26:43.620Z,100.00
2023-04-19T14:29:12.133Z,100.00
2023-04-19T14:31:40.186Z,100.00
2023-04-19T14:34:08.484Z,100.00
2023-04-19T14:36:42.495Z,100.00
2023-04-19T14:39:10.617Z,100.00
2023-04-19T14:41:38.862Z,100.00
2023-04-19T14:44:07.184Z,100.00
2023-04-19T14:46:35.868Z,100.00
2023-04-19T14:49:06.523Z,100.00
2023-04-19T14:51:34.939Z,100.00
2023-04-19T14:54:03.433Z,100.00
2023-04-19T14:56:33.249Z,100.00
2023-04-19T14:59:01.647Z,100.00
2023-04-19T15:01:29.961Z,100.00
2023-04-19T15:03:58.139Z,100.00
2023-04-19T15:06:26.336Z,100.00
2023-04-19T15:08:55.588Z,100.00
2023-04-19T15:11:23.881Z,100.00
2023-04-19T15:13:52.039Z,100.00
2023-04-19T15:16:20.198Z,100.00
2023-04-19T15:18:48.500Z,100.00
2023-04-19T15:21:21.187Z,100.00
2023-04-19T15:23:50.649Z,100.00
2023-04-19T15:26:18.996Z,100.00
2023-04-19T15:28:48.448Z,100.00
2023-04-19T15:31:16.894Z,100.00
2023-04-19T15:33:45.418Z,100.00
2023-04-19T15:36:13.966Z,100.00
2023-04-19T15:38:43.917Z,100.00
2023-04-19T15:41:12.642Z,100.00
2023-04-19T15:43:40.872Z,100.00
2023-04-19T15:46:13.655Z,100.00
2023-04-19T15:48:43.136Z,100.00
2023-04-19T15:51:12.269Z,100.00
2023-04-19T15:53:40.925Z,100.00
2023-04-19T15:56:09.564Z,100.00
2023-04-19T15:58:38.034Z,100.00
2023-04-19T16:01:12.810Z,100.00
2023-04-19T16:03:41.722Z,100.00
2023-04-19T16:06:10.323Z,100.00
2023-04-19T16:08:40.059Z,100.00
2023-04-19T16:11:08.891Z,100.00
2023-04-19T16:13:38.345Z,100.00
2023-04-19T16:16:07.180Z,100.00
2023-04-19T16:18:35.396Z,100.00
2023-04-19T16:21:04.207Z,100.00
2023-04-19T16:23:32.895Z,100.00
2023-04-19T16:26:00.969Z,100.00
2023-04-19T16:28:32.050Z,100.00
2023-04-19T16:31:00.360Z,100.00
2023-04-19T16:33:28.685Z,100.00
2023-04-19T16:35:57.215Z,100.00
2023-04-19T16:38:25.549Z,100.00
2023-04-19T16:40:55.115Z,100.00
2023-04-19T16:43:24.347Z,100.00
2023-04-19T16:45:52.826Z,100.00
2023-04-19T16:48:21.062Z,100.00
2023-04-19T16:50:50.243Z,100.00
2023-04-19T16:53:18.664Z,100.00
2023-04-19T16:55:46.876Z,100.00
2023-04-19T16:58:15.045Z,100.00
2023-04-19T17:00:43.845Z,100.00
2023-04-19T17:03:12.533Z,100.00
2023-04-19T17:05:43.221Z,100.00
2023-04-19T17:08:12.694Z,100.00
2023-04-19T17:10:42.533Z,100.00
2023-04-19T17:13:10.936Z,100.00
2023-04-19T17:15:39.832Z,100.00
2023-04-19T17:18:08.356Z,100.00
2023-04-19T17:20:37.043Z,100.00
2023-04-19T17:23:05.392Z,100.00
2023-04-19T17:25:33.628Z,100.00
2023-04-19T17:28:02.214Z,100.00
2023-04-19T17:30:30.813Z,100.00
2023-04-19T17:32:59.317Z,100.00
2023-04-19T17:35:29.886Z,100.00
2023-04-19T17:37:57.905Z,100.00
2023-04-19T17:40:27.967Z,100.00
2023-04-19T17:42:57.426Z,100.00
2023-04-19T17:45:25.554Z,100.00
2023-04-19T17:47:57.387Z,100.00
2023-04-19T17:50:26.925Z,100.00
2023-04-19T17:52:59.357Z,100.00
2023-04-19T17:55:29.513Z,100.00
2023-04-19T17:57:58.097Z,100.00
2023-04-19T18:00:26.984Z,100.00
2023-04-19T18:02:57.241Z,100.00
2023-04-19T18:05:26.396Z,100.00
2023-04-19T18:07:55.285Z,100.00
2023-04-19T18:10:26.100Z,100.00
2023-04-19T18:12:54.965Z,100.00
2023-04-19T18:15:23.176Z,100.00
2023-04-19T18:17:51.825Z,100.00
2023-04-19T18:20:21.708Z,100.00
2023-04-19T18:22:50.724Z,100.00
2023-04-19T18:25:21.874Z,100.00
2023-04-19T18:27:50.686Z,100.00
2023-04-19T18:30:18.977Z,100.00
2023-04-19T18:32:48.141Z,100.00
2023-04-19T18:35:16.544Z,100.00
2023-04-19T18:37:44.917Z,100.00
2023-04-19T18:40:13.876Z,100.00
2023-04-19T18:42:43.883Z,100.00
2023-04-19T18:45:12.358Z,100.00
2023-04-19T18:47:43.852Z,100.00
2023-04-19T18:50:18.911Z,100.00
2023-04-19T18:52:48.060Z,100.00
2023-04-19T18:55:16.413Z,100.00
2023-04-19T18:57:44.405Z,100.00
2023-04-19T19:00:13.600Z,100.00
2023-04-19T19:02:43.791Z,100.00
2023-04-19T19:05:14.018Z,100.00
2023-04-19T19:07:44.435Z,100.00
2023-04-19T19:10:20.969Z,100.00
2023-04-19T19:12:52.122Z,100.00
2023-04-19T19:15:20.213Z,100.00
2023-04-19T19:17:50.380Z,100.00
2023-04-19T19:20:19.968Z,100.00
2023-04-19T19:22:48.664Z,100.00
2023-04-19T19:25:16.664Z,100.00
2023-04-19T19:28:02.778Z,100.00
2023-04-19T19:30:35.110Z,100.00
2023-04-19T19:33:05.205Z,100.00
2023-04-19T19:35:34.236Z,100.00
2023-04-19T19:38:02.890Z,100.00
2023-04-19T19:40:32.871Z,100.00
2023-04-19T19:43:02.355Z,100.00
2023-04-19T19:45:32.069Z,100.00
2023-04-19T19:48:02.021Z,100.00
2023-04-19T19:53:01.955Z,100.00
2023-04-19T19:55:30.602Z,100.00
2023-04-19T20:03:03.211Z,100.00
2023-04-19T20:05:32.100Z,100.00
2023-04-19T20:08:13.983Z,100.00
2023-04-19T20:10:43.299Z,100.00
2023-04-19T20:13:13.499Z,100.00
2023-04-19T20:15:47.598Z,100.00
2023-04-19T20:18:17.517Z,100.00
2023-04-19T20:20:45.855Z,100.00
2023-04-19T20:23:16.584Z,100.00
2023-04-19T20:25:44.615Z,100.00
2023-04-19T20:28:13.141Z,100.00
2023-04-19T20:30:41.841Z,100.00
2023-04-19T20:33:10.151Z,100.00
2023-04-19T20:35:38.416Z,100.00
2023-04-19T20:38:08.099Z,100.00
2023-04-19T20:40:36.575Z,100.00
2023-04-19T20:43:04.814Z,100.00
2023-04-19T20:45:34.366Z,100.00
2023-04-19T20:48:03.446Z,100.00
2023-04-19T20:50:31.760Z,100.00
2023-04-19T20:53:00.123Z,100.00
2023-04-19T20:55:28.454Z,100.00
2023-04-19T20:57:56.624Z,100.00
2023-04-19T21:00:25.261Z,100.00
2023-04-19T21:02:54.189Z,100.00
2023-04-19T21:05:22.605Z,100.00
2023-04-19T21:07:50.684Z,100.00
2023-04-19T21:10:19.762Z,100.00
2023-04-19T21:12:48.564Z,100.00
2023-04-19T21:15:17.167Z,100.00
2023-04-19T21:17:45.628Z,100.00
2023-04-19T21:20:18.441Z,100.00
2023-04-19T21:22:47.525Z,100.00
2023-04-19T21:25:15.770Z,100.00
2023-04-19T21:27:47.098Z,100.00
2023-04-19T21:30:15.789Z,100.00
2023-04-19T21:32:46.346Z,100.00
2023-04-19T21:35:14.884Z,100.00
2023-04-19T21:37:43.638Z,100.00
2023-04-19T21:40:14.310Z,100.00
2023-04-19T21:42:42.277Z,100.00
2023-04-19T21:45:16.314Z,100.00
2023-04-19T21:47:44.699Z,100.00
2023-04-19T21:50:13.219Z,100.00
2023-04-19T21:52:41.956Z,100.00
2023-04-19T21:55:10.326Z,100.00
2023-04-19T21:57:38.774Z,100.00
2023-04-19T22:00:11.743Z,100.00
2023-04-19T22:02:42.231Z,100.00
2023-04-19T22:05:10.598Z,100.00
2023-04-19T22:07:40.397Z,100.00
2023-04-19T22:10:09.398Z,100.00
2023-04-19T22:12:47.959Z,100.00
2023-04-19T22:15:27.335Z,100.00
2023-04-19T22:17:57.813Z,100.00
2023-04-19T22:20:27.143Z,100.00
2023-04-19T22:22:56.734Z,100.00
2023-04-19T22:25:25.178Z,100.00
2023-04-19T22:27:53.736Z,100.00
2023-04-19T22:30:21.885Z,100.00
2023-04-19T22:32:52.608Z,100.00
2023-04-19T22:35:22.666Z,100.00
2023-04-19T22:37:51.295Z,100.00
2023-04-19T22:40:19.443Z,100.00
2023-04-19T22:42:47.643Z,100.00
2023-04-19T22:45:16.043Z,100.00
2023-04-19T22:47:44.367Z,100.00
2023-04-19T22:50:12.620Z,100.00
2023-04-19T22:52:44.799Z,100.00
2023-04-19T22:55:13.256Z,100.00
2023-04-19T22:57:43.354Z,100.00
2023-04-19T23:00:13.811Z,100.00
2023-04-19T23:02:43.102Z,100.00
2023-04-19T23:05:11.765Z,100.00
2023-04-19T23:07:42.287Z,100.00
2023-04-19T23:10:11.025Z,100.00
2023-04-19T23:12:39.558Z,100.00
2023-04-19T23:15:08.865Z,100.00
2023-04-19T23:17:42.467Z,100.00
2023-04-19T23:20:11.647Z,100.00
2023-04-19T23:22:40.692Z,100.00
2023-04-19T23:25:09.809Z,100.00
2023-04-19T23:27:38.488Z,100.00
2023-04-19T23:30:07.996Z,100.00
2023-04-19T23:32:36.493Z,100.00
2023-04-19T23:35:05.070Z,100.00
2023-04-19T23:37:33.810Z,100.00
2023-04-19T23:40:01.953Z,100.00
2023-04-19T23:42:30.217Z,100.00
2023-04-19T23:44:58.128Z,100.00
2023-04-19T23:47:29.250Z,100.00
2023-04-19T23:49:57.591Z,100.00
2023-04-19T23:52:25.955Z,100.00
2023-04-19T23:54:54.209Z,100.00
2023-04-19T23:57:26.389Z,100.00
2023-04-19T23:59:54.588Z,100.00
